AirNav   TITAN Aviation Fuels
 
 869 users online  

NC58 Gryder-Teague Airport
Taylorsville, North Carolina, USA

GOING TO TAYLORSVILLE?


FAA INFORMATION EFFECTIVE 04 NOVEMBER 2021

Location

FAA Identifier: NC58
Lat/Long: 35-55-15.4760N 081-07-12.2910W
35-55.257933N 081-07.204850W
35.9209656,-81.1200808
(estimated)
Elevation: 1190 ft. / 363 m (estimated)
Variation: 05W (1985)
From city: 3 miles E of TAYLORSVILLE, NC
Time zone: UTC -4 (UTC -5 during Standard Time)
Zip code: 28636

Airport Operations

Airport use: Private use. Permission required prior to landing
Activation date: 10/1976
Control tower: no
ARTCC: ATLANTA CENTER
FSS: RALEIGH FLIGHT SERVICE STATION
Attendance: UNATNDD
Wind indicator: no
Segmented circle: no

Airport Communications

WX AWOS-3 at SVH (12 nm SE): 119.225 (704-873-1978)
WX ASOS at HKY (17 nm SW): 118.325 (828-322-2996)
WX AWOS-3 at UKF (18 nm N): 126.625 (336-696-3788)

Nearby radio navigation aids

VOR radial/distance  VOR name  Freq  Var
BZMr068/6.6BARRETTS MOUNTAIN VOR/DME113.7506W

 
NDB name  Hdg/Dist  Freq  Var  ID
TAWBA054/12.133206WHK .... -.-
FIDDLERS072/29.739107WFIQ ..-. .. --.-
ASHEE169/32.341007WJUH .--- ..- ....
HEMLOCK113/39.432002WBAR -... .- .-.

Airport Services

Runway Information

Runway 9/27

Dimensions: 2000 x 60 ft. / 610 x 18 m
Surface: turf
RUNWAY 9  RUNWAY 27
Traffic pattern: leftleft
Obstructions: pline, 500 ft. from runwaynone

Airport Ownership and Management from official FAA records

Ownership: Privately-owned
Owner: GRYDERS
26 LYNELL ST.
TAYLORSVILLE, NC 28681
Phone 828-632-1742
Manager: BRADLEY GRYDER
26 LYNELL ST.
TAYLORSVILLE, NC 28681
Phone 828-632-1742

Airport Operational Statistics

Aircraft based on the field: 8
Single engine airplanes: 7
Ultralights: 1
    

Additional Remarks

UP GRADE LNDG ON 27; DOWN GRADE LNDG ON 09.
PRIVATE PROPERTY - NOT RESPONSIBLE FOR ACCIDENTS.
TREES & PLINES CLOSE TO RY.
DEER & OTHER WILDLIFE MAY BE ON RY.
FOR CD CTC ATLANTA ARTCC AT 770-210-7692.

Instrument Procedures

There are no published instrument procedures at NC58.

Some nearby airports with instrument procedures:

KSVH - Statesville Regional Airport (12 nm SE)
KHKY - Hickory Regional Airport (17 nm SW)
KUKF - Wilkes County Airport (18 nm N)
14A - Lake Norman Airpark (21 nm SE)
KMRN - Foothills Regional Airport (25 nm W)
 
Loc | Ops | Rwys | IFR | FBO | Links
Com | Nav | Svcs | Stats | Notes
Area around NC58 (Gryder-Teague Airport)
 
Road maps at: MapQuest Bing Google
 
Aerial photo
WARNING: Photo may not be current or correct
Aerial photo of NC58 (Gryder-Teague Airport)
Taken in the Winter of 2018

Do you have a better or more recent aerial photo of Gryder-Teague Airport that you would like to share? If so, please send us your photo.

 
Sectional chart

 
Airport distance calculator
Flying to Gryder-Teague Airport? Find the distance to fly.

From to NC58

Sunrise and sunset
Times for 30-Nov-2021
 Local
(UTC-5)
 Zulu
(UTC)
Morning civil twilight06:4811:48
Sunrise07:1612:16
Sunset17:1022:10
Evening civil twilight17:3822:38

Current date and time
Zulu (UTC)  01-Dec-2021 04:58:34
Local (UTC-5)  30-Nov-2021 23:58:34
 
METAR
KSVH 
13nm SE 
010455Z AUTO 00000KT 10SM CLR 02/M02 A3013 RMK AO2 T00221019 401711046
KHKY 
16nm SW 
010453Z 00000KT 10SM CLR 06/M01 A3014 RMK AO2 SLP195 T00561006 401611044
KUKF 
18nm N 
010435Z AUTO 00000KT 10SM CLR 03/00 A3018 RMK AO2
KMRN 
25nm W 
010455Z AUTO 00000KT 10SM CLR 01/00 A3018 RMK AO2 T00121004
KIPJ 
26nm S 
010455Z AUTO 00000KT 10SM CLR 00/M02 A3014 RMK AO2 T00041016
TAF
KHKY 
16nm SW 
301735Z 3018/0118 23007KT P6SM SKC FM010000 26003KT P6SM FEW250 FM010600 VRB02KT P6SM SCT250 FM011400 19004KT P6SM SCT180
NOTAMs
Click for the latest NOTAMs
NOTAMs are issued by the DoD/FAA and will open in a separate window not controlled by AirNav.

 

 
 

Would you like to see your business listed on this page?

 If your business provides an interesting product or service to pilots, flight crews, aircraft, or users of the Gryder-Teague Airport, you should consider listing it here.  To start the listing process, click on the button below
 
Add a business
 

Other Pages about Gryder-Teague Airport

Update a link
 
Copyright © AirNav, LLC. All rights reserved. Privacy Policy  Contact